Back to Top

Language: 

My Weather Underground Personal Weather Station Historical Data with Graphs...

Delerius Weather Station Historical Data
Daily Summary for January 3, 2017 Units:  English    Metric   Both
« Previous Day
Next Day »
Daily Weekly Monthly Yearly Custom
  High: Low: Average:
Temperature: 45.3 °F 35.6 °F 42.8 °F
Dew Point: 42.0 °F 33.0 °F 38.9 °F
Humidity: 92 % 81 % 86 %
Wind Speed: 24.0 mph 0.0 mph 13.1 mph
Wind Gust: 33.0 mph - -
Wind:- - WNW
Pressure: 30.38 in 30.14 in -
Precipitation: 0.00 in    
Historical Graphs
 
 
Tabular Data for January 3, 2017
Time Temperature Dew Point Pressure Wind Wind Speed Wind Gust Humidity Rainfall Rate (Hourly) solar Conditions
00:00 35.9 °F 33.3 °F 30.38 in WNW 4.0 mph 4.0 mph 90 % 0.00 in 0 W/m2
00:05 35.9 °F 33.3 °F 30.38 in WNW 3.0 mph 4.0 mph 90 % 0.00 in 0 W/m2
00:15 36.0 °F 33.4 °F 30.37 in NW 3.0 mph 3.0 mph 90 % 0.00 in 0 W/m2
00:25 36.2 °F 33.5 °F 30.37 in NW 2.0 mph 3.0 mph 90 % 0.00 in 0 W/m2
00:30 36.1 °F 33.5 °F 30.37 in Calm     90 % 0.00 in 0 W/m2
00:35 36.0 °F 33.4 °F 30.37 in Calm     90 % 0.00 in 0 W/m2
00:45 35.8 °F 33.2 °F 30.36 in Calm     90 % 0.00 in 0 W/m2
00:50 35.7 °F 33.1 °F 30.37 in Calm     90 % 0.00 in 0 W/m2
00:55 35.6 °F 33.0 °F 30.36 in Calm     90 % 0.00 in 0 W/m2
01:05 35.6 °F 33.2 °F 30.36 in Calm   9.0 mph 91 % 0.00 in 0 W/m2
01:10 35.6 °F 33.2 °F 30.36 in Calm   9.0 mph 91 % 0.00 in 0 W/m2
01:15 35.7 °F 33.3 °F 30.35 in NW 1.0 mph 9.0 mph 91 % 0.00 in 0 W/m2
01:20 35.8 °F 33.4 °F 30.35 in NW 1.0 mph 9.0 mph 91 % 0.00 in 0 W/m2
01:30 36.5 °F 34.4 °F 30.35 in WNW 5.0 mph 9.0 mph 92 % 0.00 in 0 W/m2
01:35 37.0 °F 34.9 °F 30.35 in WNW 5.0 mph 9.0 mph 92 % 0.00 in 0 W/m2
01:40 37.4 °F 35.3 °F 30.35 in WNW 5.0 mph 5.0 mph 92 % 0.00 in 0 W/m2
01:45 37.7 °F 35.6 °F 30.35 in WNW 5.0 mph 9.0 mph 92 % 0.00 in 0 W/m2
01:50 38.0 °F 35.9 °F 30.35 in West 5.0 mph 9.0 mph 92 % 0.00 in 0 W/m2
02:00 38.3 °F 35.9 °F 30.34 in WNW 5.0 mph 9.0 mph 91 % 0.00 in 0 W/m2
02:05 38.4 °F 36.0 °F 30.34 in WNW 4.0 mph 9.0 mph 91 % 0.00 in 0 W/m2
02:15 38.3 °F 35.9 °F 30.33 in Calm   9.0 mph 91 % 0.00 in 0 W/m2
02:20 38.2 °F 35.8 °F 30.33 in WNW 1.0 mph 9.0 mph 91 % 0.00 in 0 W/m2
02:25 38.4 °F 36.0 °F 30.33 in WNW 3.0 mph 9.0 mph 91 % 0.00 in 0 W/m2
02:30 38.7 °F 36.3 °F 30.33 in NW 5.0 mph 9.0 mph 91 % 0.00 in 0 W/m2
02:35 39.0 °F 36.6 °F 30.33 in West 6.0 mph 13.0 mph 91 % 0.00 in 0 W/m2
02:40 39.3 °F 36.9 °F 30.32 in WNW 7.0 mph 7.0 mph 91 % 0.00 in 0 W/m2
02:50 39.6 °F 36.9 °F 30.32 in WNW 9.0 mph 9.0 mph 90 % 0.00 in 0 W/m2
02:55 39.7 °F 37.0 °F 30.32 in West 8.0 mph 9.0 mph 90 % 0.00 in 0 W/m2
03:00 39.8 °F 36.8 °F 30.31 in WNW 9.0 mph 10.0 mph 89 % 0.00 in 0 W/m2
03:05 40.0 °F 37.0 °F 30.31 in WNW 10.0 mph 13.0 mph 89 % 0.00 in 0 W/m2
03:15 40.1 °F 37.1 °F 30.31 in West 12.0 mph 12.0 mph 89 % 0.00 in 0 W/m2
03:20 40.1 °F 37.1 °F 30.31 in West 12.0 mph 12.0 mph 89 % 0.00 in 0 W/m2
03:25 40.3 °F 37.3 °F 30.30 in West 11.0 mph 12.0 mph 89 % 0.00 in 0 W/m2
03:30 40.4 °F 37.4 °F 30.30 in West 11.0 mph 14.0 mph 89 % 0.00 in 0 W/m2
03:35 40.5 °F 37.2 °F 30.30 in West 12.0 mph 14.0 mph 88 % 0.00 in 0 W/m2
03:40 40.7 °F 37.4 °F 30.30 in West 12.0 mph 12.0 mph 88 % 0.00 in 0 W/m2
03:50 40.7 °F 37.4 °F 30.29 in WSW 13.0 mph 16.0 mph 88 % 0.00 in 0 W/m2
03:55 40.7 °F 37.4 °F 30.29 in WNW 14.0 mph 16.0 mph 88 % 0.00 in 0 W/m2
04:00 40.7 °F 37.4 °F 30.29 in West 14.0 mph 14.0 mph 88 % 0.00 in 0 W/m2
04:05 40.8 °F 37.5 °F 30.29 in West 14.0 mph 15.0 mph 88 % 0.00 in 0 W/m2
04:10 41.0 °F 37.7 °F 30.28 in West 14.0 mph 14.0 mph 88 % 0.00 in 0 W/m2
04:20 41.2 °F 37.9 °F 30.28 in NW 12.0 mph 12.0 mph 88 % 0.00 in 0 W/m2
04:25 41.3 °F 38.0 °F 30.28 in WNW 12.0 mph 15.0 mph 88 % 0.00 in 0 W/m2
04:30 41.4 °F 38.1 °F 30.28 in WNW 12.0 mph 12.0 mph 88 % 0.00 in 0 W/m2
04:35 41.4 °F 37.8 °F 30.28 in NW 12.0 mph 12.0 mph 87 % 0.00 in 0 W/m2
04:40 41.3 °F 37.7 °F 30.27 in WNW 13.0 mph 13.0 mph 87 % 0.00 in 0 W/m2
04:45 41.3 °F 37.7 °F 30.27 in NW 14.0 mph 15.0 mph 87 % 0.00 in 0 W/m2
04:55 41.2 °F 37.6 °F 30.27 in WNW 14.0 mph 14.0 mph 87 % 0.00 in 0 W/m2
05:00 41.2 °F 37.6 °F 30.27 in WNW 15.0 mph 15.0 mph 87 % 0.00 in 0 W/m2
05:05 41.1 °F 37.5 °F 30.27 in NW 12.0 mph 15.0 mph 87 % 0.00 in 0 W/m2
05:10 41.0 °F 37.4 °F 30.27 in WNW 10.0 mph 11.0 mph 87 % 0.00 in 0 W/m2
05:15 41.1 °F 37.5 °F 30.27 in WNW 12.0 mph 12.0 mph 87 % 0.00 in 0 W/m2
05:25 41.4 °F 37.5 °F 30.26 in WNW 15.0 mph 15.0 mph 86 % 0.00 in 0 W/m2
05:30 41.4 °F 37.5 °F 30.26 in NW 14.0 mph 21.0 mph 86 % 0.00 in 0 W/m2
05:40 41.5 °F 37.6 °F 30.26 in NW 14.0 mph 14.0 mph 86 % 0.00 in 0 W/m2
05:45 41.5 °F 37.6 °F 30.27 in WNW 14.0 mph 15.0 mph 86 % 0.00 in 0 W/m2
05:50 41.6 °F 37.7 °F 30.27 in WNW 14.0 mph 19.0 mph 86 % 0.00 in 0 W/m2
06:00 41.6 °F 37.4 °F 30.26 in WNW 12.0 mph 12.0 mph 85 % 0.00 in 0 W/m2
06:05 41.5 °F 37.3 °F 30.27 in NW 12.0 mph 18.0 mph 85 % 0.00 in 0 W/m2
06:10 41.6 °F 37.4 °F 30.27 in NW 13.0 mph 13.0 mph 85 % 0.00 in 0 W/m2
06:15 41.6 °F 37.4 °F 30.27 in NW 13.0 mph 19.0 mph 85 % 0.00 in 0 W/m2
06:25 41.7 °F 37.5 °F 30.27 in WNW 12.0 mph 13.0 mph 85 % 0.00 in 0 W/m2
06:35 41.7 °F 37.5 °F 30.28 in WNW 10.0 mph 10.0 mph 85 % 0.00 in 0 W/m2
06:40 41.8 °F 37.9 °F 30.28 in NNW 10.0 mph 14.0 mph 86 % 0.00 in 0 W/m2
06:45 41.9 °F 37.7 °F 30.28 in WNW 9.0 mph 14.0 mph 85 % 0.00 in 0 W/m2
06:50 42.1 °F 37.9 °F 30.28 in WNW 9.0 mph 13.0 mph 85 % 0.00 in 0 W/m2
06:55 42.2 °F 38.0 °F 30.28 in West 10.0 mph 13.0 mph 85 % 0.00 in 0 W/m2
07:05 42.3 °F 38.4 °F 30.28 in WSW 10.0 mph 11.0 mph 86 % 0.00 in 0 W/m2
07:10 42.4 °F 38.5 °F 30.28 in West 10.0 mph 10.0 mph 86 % 0.00 in 0 W/m2
07:15 42.5 °F 38.6 °F 30.27 in NW 12.0 mph 12.0 mph 86 % 0.00 in 0 W/m2
07:20 42.5 °F 38.6 °F 30.27 in WNW 12.0 mph 20.0 mph 86 % 0.00 in 0 W/m2
07:25 42.4 °F 38.5 °F 30.27 in NW 12.0 mph 20.0 mph 86 % 0.00 in 0 W/m2
07:30 42.4 °F 38.5 °F 30.27 in WNW 12.0 mph 13.0 mph 86 % 0.00 in 0 W/m2
07:40 42.5 °F 38.3 °F 30.27 in WNW 11.0 mph 13.0 mph 85 % 0.00 in 0 W/m2
07:45 42.5 °F 38.3 °F 30.27 in WNW 11.0 mph 13.0 mph 85 % 0.00 in 0 W/m2
07:50 42.5 °F 38.3 °F 30.27 in WNW 11.0 mph 11.0 mph 85 % 0.00 in 0 W/m2
07:55 42.4 °F 38.2 °F 30.27 in WNW 11.0 mph 14.0 mph 85 % 0.00 in 0 W/m2
08:00 42.4 °F 38.2 °F 30.27 in NW 11.0 mph 11.0 mph 85 % 0.00 in 0 W/m2
08:10 42.2 °F 38.0 °F 30.27 in WNW 9.0 mph 11.0 mph 85 % 0.00 in 0 W/m2
08:15 42.3 °F 38.4 °F 30.27 in WNW 10.0 mph 11.0 mph 86 % 0.00 in 0 W/m2
08:20 42.3 °F 38.4 °F 30.27 in WNW 9.0 mph 9.0 mph 86 % 0.00 in 0 W/m2
08:25 42.3 °F 38.4 °F 30.27 in West 9.0 mph 15.0 mph 86 % 0.00 in 0 W/m2
08:30 42.4 °F 38.2 °F 30.26 in West 10.0 mph 10.0 mph 85 % 0.00 in 5 W/m2
08:35 42.5 °F 38.3 °F 30.26 in WNW 10.0 mph 10.0 mph 85 % 0.00 in 5 W/m2
08:40 42.5 °F 38.3 °F 30.27 in NW 9.0 mph 18.0 mph 85 % 0.00 in 7 W/m2
08:45 42.6 °F 38.4 °F 30.27 in WNW 9.0 mph 18.0 mph 85 % 0.00 in 7 W/m2
08:55 42.7 °F 38.5 °F 30.27 in West 7.0 mph 9.0 mph 85 % 0.00 in 9 W/m2
09:00 42.8 °F 38.6 °F 30.27 in West 8.0 mph 10.0 mph 85 % 0.00 in 11 W/m2
09:05 42.9 °F 38.7 °F 30.26 in WNW 10.0 mph 10.0 mph 85 % 0.00 in 14 W/m2
09:10 42.9 °F 38.7 °F 30.26 in WNW 11.0 mph 11.0 mph 85 % 0.00 in 16 W/m2
09:20 42.9 °F 38.7 °F 30.26 in West 9.0 mph 13.0 mph 85 % 0.00 in 23 W/m2
09:25 43.0 °F 38.8 °F 30.26 in West 11.0 mph 13.0 mph 85 % 0.00 in 23 W/m2
09:30 43.0 °F 38.8 °F 30.26 in WNW 11.0 mph 13.0 mph 85 % 0.00 in 26 W/m2
09:35 43.1 °F 38.9 °F 30.25 in WNW 10.0 mph 13.0 mph 85 % 0.00 in 39 W/m2
09:40 43.1 °F 39.2 °F 30.25 in WNW 10.0 mph 10.0 mph 86 % 0.00 in 46 W/m2
09:50 43.2 °F 39.0 °F 30.25 in West 12.0 mph 12.0 mph 85 % 0.00 in 58 W/m2
09:55 43.2 °F 39.0 °F 30.25 in NW 12.0 mph 14.0 mph 85 % 0.00 in 58 W/m2
10:00 43.3 °F 39.1 °F 30.25 in WNW 14.0 mph 14.0 mph 85 % 0.00 in 67 W/m2
10:05 43.4 °F 39.2 °F 30.26 in West 15.0 mph 15.0 mph 85 % 0.00 in 79 W/m2
10:10 43.4 °F 39.2 °F 30.26 in West 16.0 mph 20.0 mph 85 % 0.00 in 67 W/m2
10:15 43.5 °F 39.0 °F 30.25 in WNW 16.0 mph 20.0 mph 84 % 0.00 in 70 W/m2
10:25 43.6 °F 39.1 °F 30.26 in West 13.0 mph 14.0 mph 84 % 0.00 in 53 W/m2
10:30 43.7 °F 39.2 °F 30.25 in West 13.0 mph 16.0 mph 84 % 0.00 in 62 W/m2
10:35 43.7 °F 39.2 °F 30.25 in West 14.0 mph 16.0 mph 84 % 0.00 in 65 W/m2
10:40 43.7 °F 39.2 °F 30.25 in West 15.0 mph 15.0 mph 84 % 0.00 in 56 W/m2
10:45 43.7 °F 39.2 °F 30.25 in West 14.0 mph 15.0 mph 84 % 0.00 in 62 W/m2
10:55 43.8 °F 39.6 °F 30.25 in WSW 11.0 mph 13.0 mph 85 % 0.00 in 79 W/m2
11:00 43.8 °F 39.6 °F 30.25 in West 12.0 mph 12.0 mph 85 % 0.00 in 95 W/m2
11:05 43.9 °F 39.7 °F 30.25 in West 14.0 mph 14.0 mph 85 % 0.00 in 95 W/m2
11:10 44.0 °F 39.8 °F 30.24 in West 13.0 mph 16.0 mph 85 % 0.00 in 83 W/m2
11:15 44.1 °F 39.9 °F 30.24 in WSW 13.0 mph 16.0 mph 85 % 0.00 in 72 W/m2
11:20 44.1 °F 39.9 °F 30.24 in NW 13.0 mph 13.0 mph 85 % 0.00 in 63 W/m2
11:30 44.2 °F 40.0 °F 30.24 in NW 11.0 mph 11.0 mph 85 % 0.00 in 74 W/m2
11:35 44.2 °F 40.0 °F 30.23 in WNW 11.0 mph 15.0 mph 85 % 0.00 in 84 W/m2
11:40 44.2 °F 40.0 °F 30.23 in WSW 14.0 mph 21.0 mph 85 % 0.00 in 83 W/m2
11:45 44.2 °F 40.0 °F 30.22 in NW 15.0 mph 21.0 mph 85 % 0.00 in 63 W/m2
11:50 44.2 °F 40.0 °F 30.22 in WNW 18.0 mph 18.0 mph 85 % 0.00 in 74 W/m2
12:00 44.1 °F 39.9 °F 30.22 in WNW 18.0 mph 20.0 mph 85 % 0.00 in 49 W/m2
12:05 44.1 °F 39.9 °F 30.22 in West 16.0 mph 20.0 mph 85 % 0.00 in 42 W/m2
12:10 44.0 °F 39.8 °F 30.21 in NW 12.0 mph 12.0 mph 85 % 0.00 in 53 W/m2
12:15 44.0 °F 39.8 °F 30.20 in WNW 14.0 mph 14.0 mph 85 % 0.00 in 74 W/m2
12:20 44.1 °F 39.9 °F 30.20 in NNW 17.0 mph 17.0 mph 85 % 0.00 in 107 W/m2
12:25 44.2 °F 40.0 °F 30.20 in West 19.0 mph 19.0 mph 85 % 0.00 in 160 W/m2
12:35 44.5 °F 40.0 °F 30.20 in NW 24.0 mph 24.0 mph 84 % 0.00 in 125 W/m2
12:40 44.5 °F 40.0 °F 30.20 in NW 24.0 mph 24.0 mph 84 % 0.00 in 114 W/m2
12:45 44.4 °F 39.9 °F 30.20 in West 24.0 mph 24.0 mph 84 % 0.00 in 65 W/m2
12:50 44.2 °F 40.0 °F 30.20 in WNW 24.0 mph 24.0 mph 85 % 0.00 in 63 W/m2
12:55 44.1 °F 40.2 °F 30.20 in WNW 21.0 mph 27.0 mph 86 % 0.00 in 90 W/m2
13:05 44.2 °F 40.3 °F 30.19 in NW 19.0 mph 20.0 mph 86 % 0.00 in 104 W/m2
13:10 44.3 °F 40.4 °F 30.19 in NW 20.0 mph 20.0 mph 86 % 0.00 in 98 W/m2
13:15 44.4 °F 40.2 °F 30.19 in WNW 19.0 mph 25.0 mph 85 % 0.00 in 118 W/m2
13:20 44.5 °F 40.3 °F 30.19 in WNW 21.0 mph 24.0 mph 85 % 0.00 in 91 W/m2
13:25 44.6 °F 40.4 °F 30.18 in WNW 20.0 mph 24.0 mph 85 % 0.00 in 76 W/m2
13:30 44.6 °F 40.4 °F 30.18 in NW 20.0 mph 20.0 mph 85 % 0.00 in 58 W/m2
13:40 44.5 °F 40.3 °F 30.18 in West 18.0 mph 18.0 mph 85 % 0.00 in 42 W/m2
13:45 44.5 °F 40.3 °F 30.19 in WNW 15.0 mph 18.0 mph 85 % 0.00 in 33 W/m2
13:50 44.4 °F 40.2 °F 30.19 in NW 16.0 mph 23.0 mph 85 % 0.00 in 32 W/m2
13:55 44.4 °F 40.2 °F 30.19 in West 18.0 mph 23.0 mph 85 % 0.00 in 37 W/m2
14:00 44.4 °F 40.2 °F 30.19 in NW 17.0 mph 21.0 mph 85 % 0.00 in 35 W/m2
14:10 44.4 °F 39.9 °F 30.19 in NW 17.0 mph 17.0 mph 84 % 0.00 in 33 W/m2
14:15 44.4 °F 40.2 °F 30.19 in NW 15.0 mph 17.0 mph 85 % 0.00 in 30 W/m2
14:20 44.3 °F 40.1 °F 30.19 in NW 14.0 mph 23.0 mph 85 % 0.00 in 42 W/m2
14:25 44.3 °F 40.1 °F 30.19 in NW 15.0 mph 23.0 mph 85 % 0.00 in 37 W/m2
14:30 44.3 °F 40.1 °F 30.19 in West 15.0 mph 16.0 mph 85 % 0.00 in 33 W/m2
14:40 44.2 °F 40.3 °F 30.20 in WNW 13.0 mph 13.0 mph 86 % 0.00 in 28 W/m2
14:45 44.2 °F 40.3 °F 30.20 in West 12.0 mph 13.0 mph 86 % 0.00 in 26 W/m2
14:50 44.2 °F 40.3 °F 30.20 in NW 13.0 mph 13.0 mph 86 % 0.00 in 30 W/m2
14:55 44.2 °F 40.3 °F 30.20 in WNW 14.0 mph 16.0 mph 86 % 0.00 in 26 W/m2
15:00 44.2 °F 40.3 °F 30.20 in WNW 14.0 mph 14.0 mph 86 % 0.00 in 21 W/m2
15:05 44.2 °F 40.3 °F 30.20 in West 13.0 mph 14.0 mph 86 % 0.00 in 16 W/m2
15:10 44.2 °F 40.3 °F 30.20 in NW 12.0 mph 12.0 mph 86 % 0.00 in 19 W/m2
15:20 44.1 °F 40.2 °F 30.20 in NW 11.0 mph 13.0 mph 86 % 0.00 in 12 W/m2
15:25 44.1 °F 40.2 °F 30.20 in NW 14.0 mph 14.0 mph 86 % 0.00 in 14 W/m2
15:30 44.1 °F 40.2 °F 30.20 in NW 15.0 mph 18.0 mph 86 % 0.00 in 11 W/m2
15:35 44.1 °F 40.2 °F 30.20 in WNW 16.0 mph 24.0 mph 86 % 0.00 in 11 W/m2
15:40 44.0 °F 40.1 °F 30.20 in WNW 16.0 mph 16.0 mph 86 % 0.00 in 7 W/m2
15:50 43.9 °F 40.3 °F 30.18 in West 15.0 mph 15.0 mph 87 % 0.00 in 9 W/m2
15:55 43.9 °F 40.0 °F 30.18 in WNW 17.0 mph 24.0 mph 86 % 0.00 in 7 W/m2
16:00 43.9 °F 40.0 °F 30.18 in West 18.0 mph 18.0 mph 86 % 0.00 in 0 W/m2
16:05 43.8 °F 40.2 °F 30.18 in WNW 16.0 mph 20.0 mph 87 % 0.00 in 0 W/m2
16:10 43.8 °F 39.9 °F 30.18 in West 17.0 mph 17.0 mph 86 % 0.00 in 0 W/m2
16:15 43.8 °F 40.2 °F 30.18 in WNW 18.0 mph 22.0 mph 87 % 0.00 in 0 W/m2
16:25 43.8 °F 40.2 °F 30.18 in NW 16.0 mph 20.0 mph 87 % 0.00 in 0 W/m2
16:30 43.8 °F 40.2 °F 30.18 in NW 17.0 mph 17.0 mph 87 % 0.00 in 0 W/m2
16:35 43.7 °F 40.1 °F 30.18 in WNW 16.0 mph 25.0 mph 87 % 0.00 in 0 W/m2
16:40 43.8 °F 39.9 °F 30.18 in NW 15.0 mph 15.0 mph 86 % 0.00 in 0 W/m2
16:45 43.7 °F 39.8 °F 30.18 in WNW 16.0 mph 26.0 mph 86 % 0.00 in 0 W/m2
16:55 43.9 °F 39.7 °F 30.18 in WNW 17.0 mph 25.0 mph 85 % 0.00 in 0 W/m2
17:00 43.9 °F 39.7 °F 30.18 in WNW 18.0 mph 23.0 mph 85 % 0.00 in 0 W/m2
17:05 44.0 °F 39.8 °F 30.19 in WNW 18.0 mph 23.0 mph 85 % 0.00 in 0 W/m2
17:10 44.0 °F 39.8 °F 30.18 in WNW 15.0 mph 15.0 mph 85 % 0.00 in 0 W/m2
17:15 44.1 °F 39.9 °F 30.18 in WNW 16.0 mph 20.0 mph 85 % 0.00 in 0 W/m2
17:25 44.1 °F 39.6 °F 30.18 in NW 17.0 mph 19.0 mph 84 % 0.00 in 0 W/m2
17:30 44.1 °F 39.3 °F 30.18 in WNW 16.0 mph 16.0 mph 83 % 0.00 in 0 W/m2
17:35 44.1 °F 39.3 °F 30.17 in West 17.0 mph 17.0 mph 83 % 0.00 in 0 W/m2
17:45 44.3 °F 39.2 °F 30.15 in West 21.0 mph 33.0 mph 82 % 0.00 in 0 W/m2
17:50 44.3 °F 39.2 °F 30.14 in West 21.0 mph 21.0 mph 82 % 0.00 in 0 W/m2
17:55 44.3 °F 39.2 °F 30.14 in West 21.0 mph 21.0 mph 82 % 0.00 in 0 W/m2
18:00 44.4 °F 39.2 °F 30.15 in WNW 22.0 mph 24.0 mph 82 % 0.00 in 0 W/m2
18:10 44.3 °F 39.2 °F 30.15 in WNW 18.0 mph 19.0 mph 82 % 0.00 in 0 W/m2
18:15 44.2 °F 39.1 °F 30.16 in WNW 16.0 mph 19.0 mph 82 % 0.00 in 0 W/m2
18:20 44.3 °F 39.2 °F 30.16 in WNW 16.0 mph 16.0 mph 82 % 0.00 in 0 W/m2
18:25 44.2 °F 38.7 °F 30.17 in NW 16.0 mph 25.0 mph 81 % 0.00 in 0 W/m2
18:35 44.3 °F 38.8 °F 30.16 in WNW 15.0 mph 22.0 mph 81 % 0.00 in 0 W/m2
18:40 44.3 °F 39.2 °F 30.16 in WNW 15.0 mph 20.0 mph 82 % 0.00 in 0 W/m2
18:45 44.3 °F 39.2 °F 30.16 in NW 15.0 mph 20.0 mph 82 % 0.00 in 0 W/m2
18:50 44.3 °F 39.2 °F 30.16 in NW 15.0 mph 15.0 mph 82 % 0.00 in 0 W/m2
18:55 44.3 °F 39.2 °F 30.16 in NW 15.0 mph 15.0 mph 82 % 0.00 in 0 W/m2
19:00 44.4 °F 39.2 °F 30.15 in WNW 15.0 mph 16.0 mph 82 % 0.00 in 0 W/m2
19:10 44.5 °F 39.3 °F 30.15 in WNW 17.0 mph 17.0 mph 82 % 0.00 in 0 W/m2
19:15 44.6 °F 39.4 °F 30.16 in West 17.0 mph 25.0 mph 82 % 0.00 in 0 W/m2
19:20 44.7 °F 39.5 °F 30.16 in WNW 17.0 mph 17.0 mph 82 % 0.00 in 0 W/m2
19:25 44.7 °F 39.5 °F 30.16 in WNW 16.0 mph 17.0 mph 82 % 0.00 in 0 W/m2
19:30 44.7 °F 39.9 °F 30.16 in West 14.0 mph 14.0 mph 83 % 0.00 in 0 W/m2
19:40 44.7 °F 39.9 °F 30.15 in NW 16.0 mph 16.0 mph 83 % 0.00 in 0 W/m2
19:45 44.9 °F 40.0 °F 30.15 in WNW 16.0 mph 19.0 mph 83 % 0.00 in 0 W/m2
19:50 44.9 °F 40.0 °F 30.15 in West 16.0 mph 16.0 mph 83 % 0.00 in 0 W/m2
19:55 45.0 °F 40.1 °F 30.15 in NW 16.0 mph 21.0 mph 83 % 0.00 in 0 W/m2
20:00 45.0 °F 40.1 °F 30.15 in WNW 16.0 mph 21.0 mph 83 % 0.00 in 0 W/m2
20:05 45.0 °F 40.1 °F 30.16 in WNW 17.0 mph 21.0 mph 83 % 0.00 in 0 W/m2
20:15 45.0 °F 40.5 °F 30.16 in WNW 11.0 mph 15.0 mph 84 % 0.00 in 0 W/m2
20:20 44.9 °F 40.4 °F 30.16 in WNW 13.0 mph 21.0 mph 84 % 0.00 in 0 W/m2
20:25 45.0 °F 40.5 °F 30.16 in WNW 15.0 mph 21.0 mph 84 % 0.00 in 0 W/m2
20:30 45.0 °F 40.5 °F 30.16 in NW 15.0 mph 15.0 mph 84 % 0.00 in 0 W/m2
20:40 45.1 °F 40.6 °F 30.16 in NNW 16.0 mph 16.0 mph 84 % 0.00 in 0 W/m2
20:45 45.1 °F 40.6 °F 30.15 in West 18.0 mph 26.0 mph 84 % 0.00 in 0 W/m2
20:50 45.1 °F 40.6 °F 30.15 in WNW 19.0 mph 19.0 mph 84 % 0.00 in 0 W/m2
20:55 45.0 °F 40.8 °F 30.15 in WNW 18.0 mph 19.0 mph 85 % 0.00 in 0 W/m2
21:00 45.0 °F 40.8 °F 30.16 in WNW 16.0 mph 22.0 mph 85 % 0.00 in 0 W/m2
21:05 45.0 °F 40.8 °F 30.16 in NW 17.0 mph 22.0 mph 85 % 0.00 in 0 W/m2
21:15 45.1 °F 40.9 °F 30.16 in West 18.0 mph 22.0 mph 85 % 0.00 in 0 W/m2
21:20 45.0 °F 40.8 °F 30.15 in NW 18.0 mph 21.0 mph 85 % 0.00 in 0 W/m2
21:25 45.0 °F 40.8 °F 30.15 in WNW 17.0 mph 23.0 mph 85 % 0.00 in 0 W/m2
21:30 45.0 °F 40.8 °F 30.15 in WNW 17.0 mph 17.0 mph 85 % 0.00 in 0 W/m2
21:35 45.0 °F 40.8 °F 30.16 in WNW 18.0 mph 18.0 mph 85 % 0.00 in 0 W/m2
21:40 45.1 °F 41.2 °F 30.16 in WNW 18.0 mph 18.0 mph 86 % 0.00 in 0 W/m2
21:50 45.1 °F 41.2 °F 30.17 in WNW 15.0 mph 15.0 mph 86 % 0.00 in 0 W/m2
21:55 45.1 °F 41.2 °F 30.17 in NW 15.0 mph 24.0 mph 86 % 0.00 in 0 W/m2
22:00 45.2 °F 41.3 °F 30.16 in West 15.0 mph 20.0 mph 86 % 0.00 in 0 W/m2
22:05 45.2 °F 41.3 °F 30.17 in NW 15.0 mph 20.0 mph 86 % 0.00 in 0 W/m2
22:10 45.2 °F 41.3 °F 30.16 in NW 15.0 mph 15.0 mph 86 % 0.00 in 0 W/m2
22:15 45.2 °F 41.3 °F 30.16 in NW 14.0 mph 20.0 mph 86 % 0.00 in 0 W/m2
22:25 45.2 °F 41.3 °F 30.16 in WNW 15.0 mph 15.0 mph 86 % 0.00 in 0 W/m2
22:30 45.3 °F 41.4 °F 30.16 in West 17.0 mph 18.0 mph 86 % 0.00 in 0 W/m2
22:35 45.3 °F 41.4 °F 30.16 in WNW 16.0 mph 19.0 mph 86 % 0.00 in 0 W/m2
22:40 45.2 °F 41.6 °F 30.16 in WNW 14.0 mph 14.0 mph 87 % 0.00 in 0 W/m2
22:45 45.2 °F 41.6 °F 30.16 in NW 15.0 mph 15.0 mph 87 % 0.00 in 0 W/m2
22:50 45.2 °F 41.6 °F 30.16 in WNW 15.0 mph 15.0 mph 87 % 0.00 in 0 W/m2
22:55 45.2 °F 41.6 °F 30.16 in WNW 16.0 mph 16.0 mph 87 % 0.00 in 0 W/m2
23:05 45.2 °F 41.6 °F 30.17 in WNW 14.0 mph 15.0 mph 87 % 0.00 in 0 W/m2
23:10 45.2 °F 41.6 °F 30.17 in WNW 13.0 mph 13.0 mph 87 % 0.00 in 0 W/m2
23:15 45.2 °F 41.6 °F 30.17 in WNW 12.0 mph 16.0 mph 87 % 0.00 in 0 W/m2
23:20 45.2 °F 41.6 °F 30.17 in NW 14.0 mph 16.0 mph 87 % 0.00 in 0 W/m2
23:25 45.2 °F 41.6 °F 30.17 in WNW 15.0 mph 16.0 mph 87 % 0.00 in 0 W/m2
23:35 45.2 °F 41.9 °F 30.17 in WNW 15.0 mph 20.0 mph 88 % 0.00 in 0 W/m2
23:40 45.3 °F 42.0 °F 30.17 in WNW 16.0 mph 20.0 mph 88 % 0.00 in 0 W/m2
23:45 45.3 °F 42.0 °F 30.16 in WNW 15.0 mph 20.0 mph 88 % 0.00 in 0 W/m2
23:50 45.3 °F 42.0 °F 30.16 in WNW 14.0 mph 14.0 mph 88 % 0.00 in 0 W/m2
23:55 45.3 °F 42.0 °F 30.17 in WNW 14.0 mph 14.0 mph 88 % 0.00 in 0 W/m2
Delerius-Weather
Compliments of Weather Underground - 2 mb

Data updates at regular intervals.